createdAt,value
2023-03-16T04:46:50.186Z,1.00
2023-03-16T04:49:16.799Z,0.90
2023-03-16T04:51:43.523Z,0.90
2023-03-16T04:54:11.360Z,0.80
2023-03-16T04:56:41.356Z,0.80
2023-03-16T04:59:08.161Z,0.80
2023-03-16T05:01:34.903Z,0.80
2023-03-16T05:04:02.495Z,0.60
2023-03-16T05:06:29.760Z,0.60
2023-03-16T05:08:58.603Z,0.70
2023-03-16T05:11:25.293Z,0.40
2023-03-16T05:13:52.210Z,0.40
2023-03-16T05:16:18.911Z,0.50
2023-03-16T05:18:45.624Z,0.60
2023-03-16T05:21:12.802Z,0.60
2023-03-16T05:23:39.592Z,0.70
2023-03-16T05:26:07.640Z,0.60
2023-03-16T05:28:34.396Z,0.60
2023-03-16T05:34:37.164Z,0.80
2023-03-16T05:37:04.130Z,0.80
2023-03-16T05:39:34.328Z,0.80
2023-03-16T05:42:01.087Z,0.80
2023-03-16T05:44:28.068Z,0.60
2023-03-16T05:46:55.078Z,0.60
2023-03-16T05:49:21.834Z,0.70
2023-03-16T05:51:50.165Z,0.70
2023-03-16T05:54:17.142Z,0.60
2023-03-16T05:56:43.888Z,0.60
2023-03-16T05:59:10.661Z,0.50
2023-03-16T06:01:37.408Z,0.50
2023-03-16T06:04:05.520Z,0.60
2023-03-16T06:06:32.245Z,0.70
2023-03-16T06:08:58.994Z,0.70
2023-03-16T06:11:25.745Z,0.80
2023-03-16T06:13:52.507Z,0.90
2023-03-16T06:16:19.356Z,1.00
2023-03-16T06:18:46.073Z,1.10
2023-03-16T06:21:12.737Z,1.10
2023-03-16T06:23:39.426Z,1.20
2023-03-16T06:26:06.131Z,1.30
2023-03-16T06:28:32.798Z,1.40
2023-03-16T06:30:59.568Z,1.50
2023-03-16T06:33:26.386Z,1.60
2023-03-16T06:35:53.137Z,1.70
2023-03-16T06:38:20.025Z,1.80
2023-03-16T06:40:51.493Z,1.90
2023-03-16T06:43:18.140Z,2.00
2023-03-16T06:45:45.199Z,2.20
2023-03-16T06:48:11.940Z,2.30
2023-03-16T06:50:38.615Z,2.50
2023-03-16T06:53:05.357Z,2.60
2023-03-16T06:55:31.970Z,2.70
2023-03-16T06:57:58.770Z,2.80
2023-03-16T07:00:26.006Z,3.00
2023-03-16T07:02:53.097Z,3.20
2023-03-16T07:05:19.848Z,3.30
2023-03-16T07:07:46.504Z,3.50
2023-03-16T07:10:15.604Z,3.60
2023-03-16T07:12:42.420Z,3.80
2023-03-16T07:15:10.826Z,3.90
2023-03-16T07:17:37.785Z,4.10
2023-03-16T07:20:10.676Z,4.30
2023-03-16T07:22:41.665Z,4.40
2023-03-16T07:25:08.951Z,4.60
2023-03-16T07:27:35.645Z,4.80
2023-03-16T07:30:04.656Z,4.90
2023-03-16T07:32:32.594Z,4.80
2023-03-16T07:34:59.570Z,5.10
2023-03-16T07:37:26.783Z,5.20
2023-03-16T07:39:53.575Z,5.60
2023-03-16T07:42:20.363Z,5.90
2023-03-16T07:44:46.971Z,6.20
2023-03-16T07:47:14.060Z,6.50
2023-03-16T07:49:41.700Z,6.70
2023-03-16T07:52:08.575Z,7.00
2023-03-16T07:54:35.397Z,7.40
2023-03-16T07:57:02.047Z,7.80
2023-03-16T07:59:28.763Z,8.30
2023-03-16T08:01:55.421Z,8.80
2023-03-16T08:04:22.347Z,9.30
2023-03-16T08:06:49.081Z,10.40
2023-03-16T08:09:15.836Z,11.50
2023-03-16T08:11:42.775Z,12.60
2023-03-16T08:14:09.547Z,13.70
2023-03-16T08:16:36.749Z,14.60
2023-03-16T08:19:03.717Z,14.90
2023-03-16T08:21:30.379Z,15.40
2023-03-16T08:23:57.280Z,15.90
2023-03-16T08:26:24.464Z,16.50
2023-03-16T08:28:52.311Z,16.20
2023-03-16T08:31:21.156Z,16.80
2023-03-16T08:33:48.412Z,17.20
2023-03-16T08:36:17.765Z,18.20
2023-03-16T08:38:59.867Z,19.30
2023-03-16T08:41:31.157Z,19.90
2023-03-16T08:43:59.214Z,20.60
2023-03-16T08:46:26.557Z,20.80
2023-03-16T08:48:55.712Z,21.30
2023-03-16T08:51:22.634Z,21.40
2023-03-16T08:53:49.282Z,22.00
2023-03-16T08:56:16.007Z,22.50
2023-03-16T08:58:46.041Z,21.80
2023-03-16T09:01:15.489Z,22.40
2023-03-16T09:03:42.679Z,22.40
2023-03-16T09:06:13.275Z,21.40
2023-03-16T09:08:41.087Z,20.80
2023-03-16T09:11:10.237Z,20.60
2023-03-16T09:13:38.692Z,21.30
2023-03-16T09:16:07.174Z,22.10
2023-03-16T09:18:35.447Z,22.80
2023-03-16T09:21:07.822Z,22.80
2023-03-16T09:23:37.510Z,22.70
2023-03-16T09:26:07.326Z,23.20
2023-03-16T09:28:36.048Z,24.00
2023-03-16T09:31:05.610Z,23.80
2023-03-16T09:33:33.779Z,24.30
2023-03-16T09:36:01.630Z,24.50
2023-03-16T09:38:29.102Z,24.70
2023-03-16T09:41:24.946Z,24.90
2023-03-16T09:44:04.797Z,24.10
2023-03-16T09:46:41.633Z,23.90
2023-03-16T09:49:15.901Z,23.90
2023-03-16T09:51:52.199Z,23.60
2023-03-16T09:54:39.080Z,23.20
2023-03-16T09:57:21.358Z,23.90
2023-03-16T09:59:48.146Z,23.20
2023-03-16T10:02:35.623Z,21.90
2023-03-16T10:05:12.261Z,23.00
2023-03-16T10:07:51.057Z,23.50
2023-03-16T10:10:40.996Z,24.30
2023-03-16T10:13:23.967Z,25.20
2023-03-16T10:15:53.376Z,27.00
2023-03-16T10:18:29.384Z,27.50
2023-03-16T10:20:58.469Z,28.00
2023-03-16T10:23:26.001Z,26.50
2023-03-16T10:25:55.101Z,25.20
2023-03-16T10:28:27.742Z,25.40
2023-03-16T10:30:58.056Z,26.60
2023-03-16T10:33:33.617Z,27.50
2023-03-16T10:36:05.514Z,28.10
2023-03-16T10:38:40.738Z,28.20
2023-03-16T10:41:22.624Z,29.20
2023-03-16T10:44:10.028Z,29.00
2023-03-16T10:46:41.164Z,28.20
2023-03-16T10:49:20.084Z,28.60
2023-03-16T10:51:46.906Z,28.40
2023-03-16T10:54:25.573Z,27.90
2023-03-16T10:56:52.305Z,27.10
2023-03-16T10:59:34.114Z,25.10
2023-03-16T11:02:05.311Z,24.50
2023-03-16T11:04:33.779Z,24.70
2023-03-16T11:07:00.564Z,24.10
2023-03-16T11:09:33.382Z,24.80
2023-03-16T11:12:11.974Z,25.40
2023-03-16T11:14:42.589Z,26.50
2023-03-16T11:17:33.960Z,27.00
2023-03-16T11:20:17.509Z,26.30
2023-03-16T11:22:47.145Z,25.90
2023-03-16T11:25:30.504Z,27.00
2023-03-16T11:28:12.068Z,27.10
2023-03-16T11:30:41.199Z,26.70
2023-03-16T11:33:15.320Z,25.10
2023-03-16T11:35:59.318Z,23.60
2023-03-16T11:38:48.509Z,22.80
2023-03-16T11:41:40.634Z,23.70
2023-03-16T11:44:27.658Z,24.80
2023-03-16T11:47:05.501Z,24.80
2023-03-16T11:50:02.266Z,25.40
2023-03-16T11:52:38.566Z,24.80
2023-03-16T11:55:28.728Z,23.40
2023-03-16T11:58:31.611Z,21.60
2023-03-16T12:02:00.793Z,20.80
2023-03-16T12:04:55.368Z,21.20
2023-03-16T12:07:46.451Z,20.80
2023-03-16T12:10:34.402Z,20.80
2023-03-16T12:13:38.864Z,21.70
2023-03-16T12:16:15.833Z,22.50
2023-03-16T12:18:50.384Z,23.30
2023-03-16T12:21:26.867Z,24.10
2023-03-16T12:24:06.815Z,24.80
2023-03-16T12:26:41.960Z,24.70
2023-03-16T12:29:31.593Z,24.80
2023-03-16T12:32:21.281Z,24.50
2023-03-16T12:35:02.848Z,24.00
2023-03-16T12:37:56.727Z,23.00
2023-03-16T12:40:46.363Z,21.80
2023-03-16T12:43:42.761Z,20.30
2023-03-16T12:46:22.295Z,19.40
2023-03-16T12:49:00.305Z,19.90
2023-03-16T12:51:38.856Z,20.50
2023-03-16T12:54:07.598Z,20.70
2023-03-16T12:56:46.147Z,20.80
2023-03-16T12:59:19.655Z,20.50
2023-03-16T13:01:50.539Z,19.70
2023-03-16T13:04:31.090Z,20.10
2023-03-16T13:07:17.313Z,20.00
2023-03-16T13:09:50.806Z,20.20
2023-03-16T13:12:30.983Z,20.10
2023-03-16T13:14:57.816Z,20.50
2023-03-16T13:17:27.875Z,20.60
2023-03-16T13:20:30.714Z,19.90
2023-03-16T13:23:23.048Z,18.60
2023-03-16T13:26:14.650Z,19.30
2023-03-16T13:28:43.251Z,20.20
2023-03-16T13:31:38.933Z,20.60
2023-03-16T13:34:07.574Z,20.60
2023-03-16T13:36:36.420Z,20.60
2023-03-16T13:39:05.478Z,20.50
2023-03-16T13:41:32.244Z,20.00
2023-03-16T13:43:58.984Z,20.20
2023-03-16T13:46:30.094Z,20.40
2023-03-16T13:49:03.053Z,19.70
2023-03-16T13:51:34.156Z,20.00
2023-03-16T13:54:06.342Z,20.00
2023-03-16T13:56:34.068Z,19.80
2023-03-16T13:59:01.609Z,18.90
2023-03-16T14:01:31.100Z,18.10
2023-03-16T14:04:08.625Z,18.10
2023-03-16T14:06:36.687Z,17.80
2023-03-16T14:09:08.107Z,17.60
2023-03-16T14:11:34.965Z,18.10
2023-03-16T14:14:13.064Z,19.00
2023-03-16T14:16:40.102Z,19.40
2023-03-16T14:19:14.826Z,19.60
2023-03-16T14:21:45.611Z,19.30
2023-03-16T14:24:36.992Z,19.00
2023-03-16T14:27:42.548Z,18.90
2023-03-16T14:30:24.447Z,18.80
2023-03-16T14:33:06.617Z,19.10
2023-03-16T14:35:41.356Z,19.00
2023-03-16T14:38:36.141Z,19.40
2023-03-16T14:41:10.217Z,20.10
2023-03-16T14:43:48.108Z,19.80
2023-03-16T14:46:24.088Z,19.30
2023-03-16T14:48:50.777Z,19.70
2023-03-16T14:51:17.676Z,20.20
2023-03-16T14:53:44.781Z,20.30
2023-03-16T14:56:13.594Z,19.80
2023-03-16T14:58:41.202Z,19.20
2023-03-16T15:01:14.247Z,19.40
2023-03-16T15:03:42.791Z,19.20
2023-03-16T15:06:09.917Z,19.50
2023-03-16T15:08:44.391Z,19.90
2023-03-16T15:11:11.879Z,20.30
2023-03-16T15:13:41.874Z,20.70
2023-03-16T15:16:13.982Z,20.70
2023-03-16T15:18:41.749Z,20.30
2023-03-16T15:21:31.432Z,19.60
2023-03-16T15:24:01.062Z,18.30
2023-03-16T15:26:29.628Z,18.00
2023-03-16T15:28:57.379Z,18.00
2023-03-16T15:31:24.284Z,18.20
2023-03-16T15:33:51.216Z,17.90
2023-03-16T15:36:19.980Z,17.20
2023-03-16T15:38:50.298Z,17.00
2023-03-16T15:41:17.465Z,16.70
2023-03-16T15:43:45.692Z,16.80
2023-03-16T15:46:12.554Z,16.80
2023-03-16T15:48:39.402Z,16.60
2023-03-16T15:51:28.265Z,16.60
2023-03-16T15:53:59.475Z,16.50
2023-03-16T15:56:30.277Z,16.50
2023-03-16T15:59:03.838Z,16.40
2023-03-16T16:01:38.339Z,16.10
2023-03-16T16:04:12.356Z,16.10
2023-03-16T16:06:39.265Z,16.10
2023-03-16T16:09:06.405Z,16.00
2023-03-16T16:11:33.294Z,16.00
2023-03-16T16:14:00.238Z,16.00
2023-03-16T16:16:29.063Z,16.00
2023-03-16T16:18:56.842Z,16.00
2023-03-16T16:21:28.065Z,15.90
2023-03-16T16:23:55.138Z,16.00
2023-03-16T16:26:49.912Z,16.00
2023-03-16T16:29:22.937Z,15.60
2023-03-16T16:31:51.592Z,15.30
2023-03-16T16:34:27.141Z,15.10
2023-03-16T16:36:56.165Z,15.20
2023-03-16T16:39:23.934Z,15.10
2023-03-16T16:41:52.212Z,14.90
2023-03-16T16:44:25.048Z,14.60
2023-03-16T16:46:52.824Z,14.40
2023-03-16T16:49:23.750Z,14.10
2023-03-16T16:51:52.458Z,13.90
2023-03-16T16:54:24.461Z,13.80
2023-03-16T16:56:54.559Z,13.60
2023-03-16T16:59:28.896Z,13.40
2023-03-16T17:01:56.544Z,13.20
2023-03-16T17:04:28.639Z,13.10
2023-03-16T17:07:01.931Z,13.20
2023-03-16T17:09:30.062Z,13.10
2023-03-16T17:12:00.935Z,12.90
2023-03-16T17:14:28.217Z,12.80
2023-03-16T17:16:55.377Z,12.60
2023-03-16T17:19:28.039Z,12.40
2023-03-16T17:21:57.514Z,12.30
2023-03-16T17:24:24.860Z,12.20
2023-03-16T17:26:55.108Z,12.10
2023-03-16T17:29:28.981Z,11.90
2023-03-16T17:31:56.103Z,11.80
2023-03-16T17:34:28.857Z,11.80
2023-03-16T17:36:55.846Z,11.80
2023-03-16T17:39:28.901Z,11.80
2023-03-16T17:41:58.730Z,11.70
2023-03-16T17:44:31.186Z,11.50
2023-03-16T17:46:57.872Z,11.20
2023-03-16T17:49:28.309Z,11.10
2023-03-16T17:51:55.683Z,11.00
2023-03-16T17:54:22.969Z,11.00
2023-03-16T17:56:52.092Z,11.00
2023-03-16T17:59:21.099Z,11.10
2023-03-16T18:01:48.348Z,10.90
2023-03-16T18:04:26.031Z,10.60
2023-03-16T18:06:53.454Z,10.50
2023-03-16T18:09:21.037Z,10.30
2023-03-16T18:11:50.971Z,10.20
2023-03-16T18:14:20.618Z,10.10
2023-03-16T18:16:47.348Z,10.10
2023-03-16T18:19:32.499Z,10.10
2023-03-16T18:21:59.188Z,9.90
2023-03-16T18:24:28.120Z,9.70
2023-03-16T18:26:55.420Z,9.70
2023-03-16T18:29:22.424Z,9.70
2023-03-16T18:31:49.860Z,9.70
2023-03-16T18:34:23.759Z,9.60
2023-03-16T18:36:53.047Z,9.60
2023-03-16T18:39:22.108Z,9.50
2023-03-16T18:41:48.884Z,9.40
2023-03-16T18:44:21.795Z,9.20
2023-03-16T18:46:49.651Z,9.20
2023-03-16T18:49:22.794Z,9.10
2023-03-16T18:51:52.273Z,9.10
2023-03-16T18:54:25.702Z,9.10
2023-03-16T18:56:53.842Z,9.10
2023-03-16T18:59:21.145Z,9.00
2023-03-16T19:01:48.499Z,8.90
2023-03-16T19:04:24.492Z,9.10
2023-03-16T19:06:53.908Z,8.90
2023-03-16T19:09:27.646Z,8.80
2023-03-16T19:11:54.644Z,8.70
2023-03-16T19:14:31.938Z,8.60
2023-03-16T19:16:59.198Z,8.60
2023-03-16T19:19:25.976Z,8.60
2023-03-16T19:22:09.691Z,8.70
2023-03-16T19:24:46.236Z,8.50
2023-03-16T19:27:38.305Z,8.40
2023-03-16T19:30:06.340Z,8.30
2023-03-16T19:32:33.151Z,8.30
2023-03-16T19:34:59.868Z,8.30
2023-03-16T19:37:29.931Z,8.20
2023-03-16T19:39:56.626Z,8.10
2023-03-16T19:42:30.813Z,8.00
2023-03-16T19:44:57.604Z,8.00
2023-03-16T19:47:33.615Z,8.00
2023-03-16T19:50:00.450Z,7.80
2023-03-16T19:52:28.227Z,7.60
2023-03-16T19:54:54.940Z,7.60
2023-03-16T19:57:21.739Z,7.60
2023-03-16T19:59:53.117Z,7.70
2023-03-16T20:02:40.426Z,7.70
2023-03-16T20:05:08.243Z,7.70
2023-03-16T20:07:38.030Z,7.70
2023-03-16T20:10:06.481Z,7.70
2023-03-16T20:12:33.712Z,7.50
2023-03-16T20:15:00.755Z,7.40
2023-03-16T20:17:29.561Z,7.30
2023-03-16T20:19:57.150Z,7.30
2023-03-16T20:22:28.604Z,7.40
2023-03-16T20:24:55.857Z,7.30
2023-03-16T20:27:24.202Z,7.20
2023-03-16T20:29:52.075Z,7.20
2023-03-16T20:32:21.819Z,7.30
2023-03-16T20:34:50.327Z,7.20
2023-03-16T20:37:25.056Z,7.30
2023-03-16T20:39:53.803Z,7.30
2023-03-16T20:42:25.845Z,7.30
2023-03-16T20:44:52.704Z,7.10
2023-03-16T20:47:22.807Z,6.80
2023-03-16T20:49:53.494Z,7.00
2023-03-16T20:52:23.278Z,6.80
2023-03-16T20:54:50.979Z,6.80
2023-03-16T20:57:22.574Z,6.90
2023-03-16T20:59:51.563Z,7.10
2023-03-16T21:02:28.631Z,7.10
2023-03-16T21:04:59.416Z,7.10
2023-03-16T21:07:27.202Z,6.90
2023-03-16T21:09:54.010Z,6.80
2023-03-16T21:12:33.339Z,6.60
2023-03-16T21:15:02.500Z,6.60
2023-03-16T21:17:34.887Z,6.50
2023-03-16T21:20:01.642Z,6.50
2023-03-16T21:22:32.079Z,6.70
2023-03-16T21:24:58.920Z,6.80
2023-03-16T21:27:28.713Z,6.80
2023-03-16T21:29:58.499Z,6.70
2023-03-16T21:32:27.608Z,6.60
2023-03-16T21:34:56.167Z,6.60
2023-03-16T21:37:27.929Z,6.40
2023-03-16T21:39:54.642Z,6.50
2023-03-16T21:42:21.461Z,6.50
2023-03-16T21:44:48.217Z,6.30
2023-03-16T21:47:28.412Z,6.40
2023-03-16T21:49:56.010Z,6.30
2023-03-16T21:52:30.140Z,6.20
2023-03-16T21:54:58.363Z,6.30
2023-03-16T21:57:25.088Z,6.30
2023-03-16T21:59:51.900Z,6.00
2023-03-16T22:02:23.066Z,6.00
2023-03-16T22:04:51.759Z,5.90
2023-03-16T22:07:19.450Z,6.00
2023-03-16T22:09:46.250Z,6.10
2023-03-16T22:12:14.068Z,6.10
2023-03-16T22:14:42.628Z,6.10
2023-03-16T22:17:22.075Z,6.10
2023-03-16T22:19:48.895Z,6.10
2023-03-16T22:22:17.321Z,6.00
2023-03-16T22:24:44.101Z,5.90
2023-03-16T22:27:20.616Z,5.90
2023-03-16T22:29:49.831Z,5.70
2023-03-16T22:32:20.738Z,5.70
2023-03-16T22:34:57.036Z,5.70
2023-03-16T22:37:29.032Z,5.70
2023-03-16T22:39:58.379Z,5.60
2023-03-16T22:42:33.637Z,5.60
2023-03-16T22:45:01.334Z,5.50
2023-03-16T22:47:32.500Z,5.50
2023-03-16T22:49:59.426Z,5.40
2023-03-16T22:52:30.474Z,5.50
2023-03-16T22:54:59.628Z,5.50
2023-03-16T22:57:26.477Z,5.30
2023-03-16T22:59:53.234Z,5.30
2023-03-16T23:02:24.147Z,5.30
2023-03-16T23:04:50.932Z,5.30
2023-03-16T23:07:18.102Z,5.30
2023-03-16T23:09:44.782Z,5.20
2023-03-16T23:12:17.224Z,5.20
2023-03-16T23:14:44.209Z,5.20
2023-03-16T23:17:22.244Z,5.10
2023-03-16T23:19:49.205Z,5.20
2023-03-16T23:22:16.289Z,5.10
2023-03-16T23:24:43.156Z,5.00
2023-03-16T23:27:22.199Z,5.00
2023-03-16T23:29:49.336Z,5.00
2023-03-16T23:32:19.322Z,5.00
2023-03-16T23:34:46.062Z,4.90
2023-03-16T23:37:12.796Z,4.80
2023-03-16T23:39:39.866Z,4.60
2023-03-16T23:42:07.166Z,4.70
2023-03-16T23:44:33.972Z,4.80
2023-03-16T23:47:01.297Z,4.70
2023-03-16T23:49:32.595Z,4.60
2023-03-16T23:52:01.388Z,4.50
2023-03-16T23:54:30.828Z,4.50
2023-03-16T23:56:57.810Z,4.50
2023-03-16T23:59:25.690Z,4.50
